Stanton, Michigan
Current Conditions -  °F | °C
As of 5:53 AM on Thursday 27 Nov 2014 (Local Time) from KAMN Reporting Station
Overcast Overcast  
Wind Chill: 21°   Ceiling: 3700
Heat Index: 29°   Visibility: 10mi
Dew Point: 25°   Wind: 8mph
Humidity: 85%   Direction: 300°WNW
Pressure: 30.13"   Gusts: NA
Location:  43.29°N, 85.08°W
Report Text: KAMN 271053Z AUTO 30007KT 10SM OVC037 M02/M04 A3013 RMK AO2 T10181040
Loading
Personal Weather Stations






























Interactive Weather Map New forecast layout! Learn more

10-Day Weather Forecast

Advertisements
Track Severe Weather on mobile